sensor_id;sensor_type;location;lat;lon;timestamp;P1;durP1;ratioP1;P2;durP2;ratioP2
57651;SDS011;43480;53.116;6.734;2023-04-24T00:01:54;7.47;;;4.22;;
57651;SDS011;43480;53.116;6.734;2023-04-24T00:04:21;6.07;;;4.05;;
57651;SDS011;43480;53.116;6.734;2023-04-24T00:06:47;6.68;;;4.63;;
57651;SDS011;43480;53.116;6.734;2023-04-24T00:09:18;6.20;;;4.25;;
57651;SDS011;43480;53.116;6.734;2023-04-24T00:11:44;5.38;;;2.53;;
57651;SDS011;43480;53.116;6.734;2023-04-24T00:14:09;4.32;;;2.03;;
57651;SDS011;43480;53.116;6.734;2023-04-24T00:16:35;3.08;;;1.50;;
57651;SDS011;43480;53.116;6.734;2023-04-24T00:19:01;2.28;;;1.48;;
57651;SDS011;43480;53.116;6.734;2023-04-24T00:21:26;3.22;;;1.42;;
57651;SDS011;43480;53.116;6.734;2023-04-24T00:23:52;2.10;;;1.10;;
57651;SDS011;43480;53.116;6.734;2023-04-24T00:26:18;1.63;;;1.00;;
57651;SDS011;43480;53.116;6.734;2023-04-24T00:28:44;2.20;;;1.25;;
57651;SDS011;43480;53.116;6.734;2023-04-24T00:31:09;2.10;;;0.80;;
57651;SDS011;43480;53.116;6.734;2023-04-24T00:33:35;2.00;;;1.23;;
57651;SDS011;43480;53.116;6.734;2023-04-24T00:36:01;3.85;;;1.42;;
57651;SDS011;43480;53.116;6.734;2023-04-24T00:38:26;3.17;;;1.42;;
57651;SDS011;43480;53.116;6.734;2023-04-24T00:40:52;2.63;;;1.45;;
57651;SDS011;43480;53.116;6.734;2023-04-24T00:43:19;3.10;;;2.10;;
57651;SDS011;43480;53.116;6.734;2023-04-24T00:45:44;2.72;;;1.55;;
57651;SDS011;43480;53.116;6.734;2023-04-24T00:48:11;3.45;;;2.00;;
57651;SDS011;43480;53.116;6.734;2023-04-24T00:50:37;3.53;;;1.80;;
57651;SDS011;43480;53.116;6.734;2023-04-24T00:53:03;2.90;;;1.42;;
57651;SDS011;43480;53.116;6.734;2023-04-24T00:55:29;3.00;;;1.70;;
57651;SDS011;43480;53.116;6.734;2023-04-24T00:57:55;2.75;;;1.90;;
57651;SDS011;43480;53.116;6.734;2023-04-24T01:00:21;2.90;;;1.92;;
57651;SDS011;43480;53.116;6.734;2023-04-24T01:02:47;3.10;;;1.73;;
57651;SDS011;43480;53.116;6.734;2023-04-24T01:05:13;4.00;;;2.47;;
57651;SDS011;43480;53.116;6.734;2023-04-24T01:07:43;3.35;;;1.77;;
57651;SDS011;43480;53.116;6.734;2023-04-24T01:10:13;4.07;;;2.60;;
57651;SDS011;43480;53.116;6.734;2023-04-24T01:12:39;3.90;;;2.60;;
57651;SDS011;43480;53.116;6.734;2023-04-24T01:15:05;3.55;;;2.05;;
57651;SDS011;43480;53.116;6.734;2023-04-24T01:17:31;4.15;;;2.72;;
57651;SDS011;43480;53.116;6.734;2023-04-24T01:19:58;4.93;;;2.38;;
57651;SDS011;43480;53.116;6.734;2023-04-24T01:22:25;4.57;;;2.60;;
57651;SDS011;43480;53.116;6.734;2023-04-24T01:24:51;4.10;;;2.50;;
57651;SDS011;43480;53.116;6.734;2023-04-24T01:27:17;4.60;;;2.55;;
57651;SDS011;43480;53.116;6.734;2023-04-24T01:29:43;3.58;;;2.38;;
57651;SDS011;43480;53.116;6.734;2023-04-24T01:32:09;4.35;;;2.45;;
57651;SDS011;43480;53.116;6.734;2023-04-24T01:34:35;4.55;;;2.67;;
57651;SDS011;43480;53.116;6.734;2023-04-24T01:37:02;5.03;;;2.60;;
57651;SDS011;43480;53.116;6.734;2023-04-24T01:39:27;4.40;;;2.67;;
57651;SDS011;43480;53.116;6.734;2023-04-24T01:41:54;4.22;;;2.72;;
57651;SDS011;43480;53.116;6.734;2023-04-24T01:44:20;4.25;;;2.65;;
57651;SDS011;43480;53.116;6.734;2023-04-24T01:46:46;5.15;;;3.33;;
57651;SDS011;43480;53.116;6.734;2023-04-24T01:49:11;5.88;;;3.63;;
57651;SDS011;43480;53.116;6.734;2023-04-24T01:51:37;5.43;;;3.70;;
57651;SDS011;43480;53.116;6.734;2023-04-24T01:54:03;6.30;;;4.50;;
57651;SDS011;43480;53.116;6.734;2023-04-24T01:56:29;6.50;;;4.70;;
57651;SDS011;43480;53.116;6.734;2023-04-24T01:58:55;6.63;;;4.00;;
57651;SDS011;43480;53.116;6.734;2023-04-24T02:01:23;6.68;;;4.07;;
57651;SDS011;43480;53.116;6.734;2023-04-24T02:03:49;6.07;;;4.38;;
57651;SDS011;43480;53.116;6.734;2023-04-24T02:06:15;6.38;;;4.20;;
57651;SDS011;43480;53.116;6.734;2023-04-24T02:08:41;6.78;;;4.50;;
57651;SDS011;43480;53.116;6.734;2023-04-24T02:11:08;7.45;;;4.78;;
57651;SDS011;43480;53.116;6.734;2023-04-24T02:13:34;7.40;;;4.63;;
57651;SDS011;43480;53.116;6.734;2023-04-24T02:15:59;8.38;;;5.75;;
57651;SDS011;43480;53.116;6.734;2023-04-24T02:18:25;8.20;;;6.20;;
57651;SDS011;43480;53.116;6.734;2023-04-24T02:20:51;8.02;;;5.72;;
57651;SDS011;43480;53.116;6.734;2023-04-24T02:23:17;7.97;;;6.45;;
57651;SDS011;43480;53.116;6.734;2023-04-24T02:25:42;9.05;;;6.05;;
57651;SDS011;43480;53.116;6.734;2023-04-24T02:28:08;10.85;;;7.30;;
57651;SDS011;43480;53.116;6.734;2023-04-24T02:30:33;11.05;;;8.02;;
57651;SDS011;43480;53.116;6.734;2023-04-24T02:32:59;10.43;;;7.53;;
57651;SDS011;43480;53.116;6.734;2023-04-24T02:35:25;9.90;;;7.38;;
57651;SDS011;43480;53.116;6.734;2023-04-24T02:37:50;10.07;;;7.57;;
57651;SDS011;43480;53.116;6.734;2023-04-24T02:40:16;10.98;;;8.73;;
57651;SDS011;43480;53.116;6.734;2023-04-24T02:42:41;10.93;;;8.73;;
57651;SDS011;43480;53.116;6.734;2023-04-24T02:45:07;11.30;;;8.40;;
57651;SDS011;43480;53.116;6.734;2023-04-24T02:47:33;11.25;;;8.65;;
57651;SDS011;43480;53.116;6.734;2023-04-24T02:49:59;11.20;;;7.85;;
57651;SDS011;43480;53.116;6.734;2023-04-24T02:52:24;10.70;;;8.35;;
57651;SDS011;43480;53.116;6.734;2023-04-24T02:54:50;11.65;;;8.52;;
57651;SDS011;43480;53.116;6.734;2023-04-24T02:57:15;12.30;;;8.90;;
57651;SDS011;43480;53.116;6.734;2023-04-24T02:59:41;12.77;;;10.50;;
57651;SDS011;43480;53.116;6.734;2023-04-24T03:02:07;12.65;;;10.55;;
57651;SDS011;43480;53.116;6.734;2023-04-24T03:04:32;14.68;;;10.90;;
57651;SDS011;43480;53.116;6.734;2023-04-24T03:06:58;13.93;;;12.23;;
57651;SDS011;43480;53.116;6.734;2023-04-24T03:09:23;14.48;;;12.85;;
57651;SDS011;43480;53.116;6.734;2023-04-24T03:11:49;15.80;;;13.25;;
57651;SDS011;43480;53.116;6.734;2023-04-24T03:14:15;16.08;;;12.98;;
57651;SDS011;43480;53.116;6.734;2023-04-24T03:16:41;14.90;;;13.02;;
57651;SDS011;43480;53.116;6.734;2023-04-24T03:19:07;14.13;;;12.45;;
57651;SDS011;43480;53.116;6.734;2023-04-24T03:21:33;14.50;;;12.32;;
57651;SDS011;43480;53.116;6.734;2023-04-24T03:24:00;13.68;;;12.27;;
57651;SDS011;43480;53.116;6.734;2023-04-24T03:26:26;14.30;;;12.15;;
57651;SDS011;43480;53.116;6.734;2023-04-24T03:28:51;13.73;;;11.73;;
57651;SDS011;43480;53.116;6.734;2023-04-24T03:31:17;14.40;;;12.60;;
57651;SDS011;43480;53.116;6.734;2023-04-24T03:33:44;14.23;;;12.73;;
57651;SDS011;43480;53.116;6.734;2023-04-24T03:36:09;12.98;;;10.90;;
57651;SDS011;43480;53.116;6.734;2023-04-24T03:38:35;12.05;;;10.80;;
57651;SDS011;43480;53.116;6.734;2023-04-24T03:41:00;12.85;;;11.45;;
57651;SDS011;43480;53.116;6.734;2023-04-24T03:43:26;12.30;;;10.02;;
57651;SDS011;43480;53.116;6.734;2023-04-24T03:45:52;12.55;;;10.68;;
57651;SDS011;43480;53.116;6.734;2023-04-24T03:48:18;13.73;;;11.35;;
57651;SDS011;43480;53.116;6.734;2023-04-24T03:50:43;11.27;;;10.07;;
57651;SDS011;43480;53.116;6.734;2023-04-24T03:53:09;11.63;;;10.32;;
57651;SDS011;43480;53.116;6.734;2023-04-24T03:55:35;10.98;;;9.63;;
57651;SDS011;43480;53.116;6.734;2023-04-24T03:58:00;10.90;;;9.80;;
57651;SDS011;43480;53.116;6.734;2023-04-24T04:00:26;12.05;;;9.13;;
57651;SDS011;43480;53.116;6.734;2023-04-24T04:02:52;9.77;;;8.50;;
57651;SDS011;43480;53.116;6.734;2023-04-24T04:05:18;12.57;;;10.00;;
57651;SDS011;43480;53.116;6.734;2023-04-24T04:07:43;9.50;;;8.43;;
57651;SDS011;43480;53.116;6.734;2023-04-24T04:10:09;9.30;;;7.85;;
57651;SDS011;43480;53.116;6.734;2023-04-24T04:12:35;11.07;;;8.27;;
57651;SDS011;43480;53.116;6.734;2023-04-24T04:15:00;10.63;;;8.15;;
57651;SDS011;43480;53.116;6.734;2023-04-24T04:17:26;9.43;;;8.43;;
57651;SDS011;43480;53.116;6.734;2023-04-24T04:19:52;10.05;;;8.35;;
57651;SDS011;43480;53.116;6.734;2023-04-24T04:22:17;9.35;;;8.10;;
57651;SDS011;43480;53.116;6.734;2023-04-24T04:24:43;11.45;;;8.93;;
57651;SDS011;43480;53.116;6.734;2023-04-24T04:27:09;11.35;;;9.13;;
57651;SDS011;43480;53.116;6.734;2023-04-24T04:29:35;12.20;;;9.43;;
57651;SDS011;43480;53.116;6.734;2023-04-24T04:32:01;11.30;;;9.40;;
57651;SDS011;43480;53.116;6.734;2023-04-24T04:34:27;11.02;;;9.40;;
57651;SDS011;43480;53.116;6.734;2023-04-24T04:36:53;11.90;;;9.65;;
57651;SDS011;43480;53.116;6.734;2023-04-24T04:39:19;11.48;;;10.27;;
57651;SDS011;43480;53.116;6.734;2023-04-24T04:41:45;11.77;;;9.38;;
57651;SDS011;43480;53.116;6.734;2023-04-24T04:44:14;12.32;;;8.98;;
57651;SDS011;43480;53.116;6.734;2023-04-24T04:46:40;11.68;;;9.38;;
57651;SDS011;43480;53.116;6.734;2023-04-24T04:49:06;10.40;;;9.07;;
57651;SDS011;43480;53.116;6.734;2023-04-24T04:51:36;10.30;;;8.52;;
57651;SDS011;43480;53.116;6.734;2023-04-24T04:54:02;11.70;;;8.43;;
57651;SDS011;43480;53.116;6.734;2023-04-24T04:56:27;10.40;;;8.00;;
57651;SDS011;43480;53.116;6.734;2023-04-24T04:58:53;10.18;;;7.65;;
57651;SDS011;43480;53.116;6.734;2023-04-24T05:01:19;10.32;;;8.43;;
57651;SDS011;43480;53.116;6.734;2023-04-24T05:03:44;9.38;;;7.55;;
57651;SDS011;43480;53.116;6.734;2023-04-24T05:06:10;7.90;;;6.20;;
57651;SDS011;43480;53.116;6.734;2023-04-24T05:08:35;7.60;;;5.22;;
57651;SDS011;43480;53.116;6.734;2023-04-24T05:11:01;6.80;;;5.25;;
57651;SDS011;43480;53.116;6.734;2023-04-24T05:13:27;6.80;;;4.43;;
57651;SDS011;43480;53.116;6.734;2023-04-24T05:15:52;6.35;;;4.25;;
57651;SDS011;43480;53.116;6.734;2023-04-24T05:18:18;7.53;;;4.60;;
57651;SDS011;43480;53.116;6.734;2023-04-24T05:20:43;5.18;;;3.40;;
57651;SDS011;43480;53.116;6.734;2023-04-24T05:23:09;6.38;;;3.47;;
57651;SDS011;43480;53.116;6.734;2023-04-24T05:25:36;4.05;;;2.50;;
57651;SDS011;43480;53.116;6.734;2023-04-24T05:28:04;5.22;;;2.80;;
57651;SDS011;43480;53.116;6.734;2023-04-24T05:30:30;5.40;;;2.70;;
57651;SDS011;43480;53.116;6.734;2023-04-24T05:32:56;4.18;;;2.30;;
57651;SDS011;43480;53.116;6.734;2023-04-24T05:35:21;3.40;;;1.98;;
57651;SDS011;43480;53.116;6.734;2023-04-24T05:37:47;3.95;;;2.30;;
57651;SDS011;43480;53.116;6.734;2023-04-24T05:40:13;4.13;;;2.25;;
57651;SDS011;43480;53.116;6.734;2023-04-24T05:42:39;4.40;;;2.58;;
57651;SDS011;43480;53.116;6.734;2023-04-24T05:45:05;4.88;;;2.60;;
57651;SDS011;43480;53.116;6.734;2023-04-24T05:47:31;4.25;;;2.35;;
57651;SDS011;43480;53.116;6.734;2023-04-24T05:49:56;4.47;;;2.47;;
57651;SDS011;43480;53.116;6.734;2023-04-24T05:52:22;3.97;;;2.65;;
57651;SDS011;43480;53.116;6.734;2023-04-24T05:54:47;3.80;;;2.20;;
57651;SDS011;43480;53.116;6.734;2023-04-24T05:57:13;4.40;;;2.20;;
57651;SDS011;43480;53.116;6.734;2023-04-24T05:59:39;6.07;;;2.90;;
57651;SDS011;43480;53.116;6.734;2023-04-24T06:02:06;4.82;;;2.97;;
57651;SDS011;43480;53.116;6.734;2023-04-24T06:04:32;4.43;;;2.70;;
57651;SDS011;43480;53.116;6.734;2023-04-24T06:06:58;6.10;;;2.80;;
57651;SDS011;43480;53.116;6.734;2023-04-24T06:09:24;4.05;;;2.47;;
57651;SDS011;43480;53.116;6.734;2023-04-24T06:11:50;4.90;;;2.80;;
57651;SDS011;43480;53.116;6.734;2023-04-24T06:14:18;4.63;;;2.90;;
57651;SDS011;43480;53.116;6.734;2023-04-24T06:16:45;4.35;;;2.75;;
57651;SDS011;43480;53.116;6.734;2023-04-24T06:19:11;4.50;;;2.50;;
57651;SDS011;43480;53.116;6.734;2023-04-24T06:21:37;5.30;;;2.53;;
57651;SDS011;43480;53.116;6.734;2023-04-24T06:24:02;4.85;;;1.98;;
57651;SDS011;43480;53.116;6.734;2023-04-24T06:26:29;4.47;;;2.85;;
57651;SDS011;43480;53.116;6.734;2023-04-24T06:28:55;4.22;;;2.47;;
57651;SDS011;43480;53.116;6.734;2023-04-24T06:31:21;3.58;;;2.00;;
57651;SDS011;43480;53.116;6.734;2023-04-24T06:33:48;4.78;;;2.15;;
57651;SDS011;43480;53.116;6.734;2023-04-24T06:36:14;3.90;;;2.20;;
57651;SDS011;43480;53.116;6.734;2023-04-24T06:38:40;3.70;;;2.22;;
57651;SDS011;43480;53.116;6.734;2023-04-24T06:41:06;3.85;;;2.22;;
57651;SDS011;43480;53.116;6.734;2023-04-24T06:43:32;4.28;;;2.17;;
57651;SDS011;43480;53.116;6.734;2023-04-24T06:45:58;5.38;;;3.33;;
57651;SDS011;43480;53.116;6.734;2023-04-24T06:48:25;8.85;;;5.32;;
57651;SDS011;43480;53.116;6.734;2023-04-24T06:50:51;10.13;;;6.88;;
57651;SDS011;43480;53.116;6.734;2023-04-24T06:53:17;10.13;;;7.18;;
57651;SDS011;43480;53.116;6.734;2023-04-24T06:55:43;9.27;;;6.78;;
57651;SDS011;43480;53.116;6.734;2023-04-24T06:58:11;11.77;;;7.45;;
57651;SDS011;43480;53.116;6.734;2023-04-24T07:00:37;13.38;;;8.18;;
57651;SDS011;43480;53.116;6.734;2023-04-24T07:03:03;10.63;;;8.18;;
57651;SDS011;43480;53.116;6.734;2023-04-24T07:05:32;13.15;;;7.53;;
57651;SDS011;43480;53.116;6.734;2023-04-24T07:08:00;9.93;;;7.72;;
57651;SDS011;43480;53.116;6.734;2023-04-24T07:10:26;12.27;;;7.57;;
57651;SDS011;43480;53.116;6.734;2023-04-24T07:12:53;12.00;;;7.40;;
57651;SDS011;43480;53.116;6.734;2023-04-24T07:15:20;13.57;;;7.68;;
57651;SDS011;43480;53.116;6.734;2023-04-24T07:17:46;12.43;;;7.90;;
57651;SDS011;43480;53.116;6.734;2023-04-24T07:20:11;11.27;;;6.68;;
57651;SDS011;43480;53.116;6.734;2023-04-24T07:22:39;10.88;;;7.03;;
57651;SDS011;43480;53.116;6.734;2023-04-24T07:25:05;8.65;;;6.50;;
57651;SDS011;43480;53.116;6.734;2023-04-24T07:27:32;9.48;;;4.82;;
57651;SDS011;43480;53.116;6.734;2023-04-24T07:29:58;7.40;;;3.60;;
57651;SDS011;43480;53.116;6.734;2023-04-24T07:32:23;6.07;;;3.83;;
57651;SDS011;43480;53.116;6.734;2023-04-24T07:34:49;6.78;;;4.13;;
57651;SDS011;43480;53.116;6.734;2023-04-24T07:37:14;5.50;;;3.20;;
57651;SDS011;43480;53.116;6.734;2023-04-24T07:39:40;5.68;;;3.00;;
57651;SDS011;43480;53.116;6.734;2023-04-24T07:42:06;8.63;;;2.70;;
57651;SDS011;43480;53.116;6.734;2023-04-24T07:44:31;6.05;;;2.90;;
57651;SDS011;43480;53.116;6.734;2023-04-24T07:46:57;5.38;;;3.00;;
57651;SDS011;43480;53.116;6.734;2023-04-24T07:49:23;5.28;;;3.42;;
57651;SDS011;43480;53.116;6.734;2023-04-24T07:51:49;7.10;;;3.92;;
57651;SDS011;43480;53.116;6.734;2023-04-24T07:54:15;9.18;;;4.28;;
57651;SDS011;43480;53.116;6.734;2023-04-24T07:56:41;9.02;;;4.75;;
57651;SDS011;43480;53.116;6.734;2023-04-24T07:59:08;7.88;;;3.95;;
57651;SDS011;43480;53.116;6.734;2023-04-24T08:01:35;7.50;;;4.07;;
57651;SDS011;43480;53.116;6.734;2023-04-24T08:04:00;6.18;;;4.68;;
57651;SDS011;43480;53.116;6.734;2023-04-24T08:06:26;7.85;;;4.65;;
57651;SDS011;43480;53.116;6.734;2023-04-24T08:08:57;10.45;;;4.78;;
57651;SDS011;43480;53.116;6.734;2023-04-24T08:11:22;7.88;;;4.22;;
57651;SDS011;43480;53.116;6.734;2023-04-24T08:13:49;10.40;;;4.72;;
57651;SDS011;43480;53.116;6.734;2023-04-24T08:16:15;9.20;;;3.95;;
57651;SDS011;43480;53.116;6.734;2023-04-24T08:18:41;10.07;;;3.97;;
57651;SDS011;43480;53.116;6.734;2023-04-24T08:21:06;8.23;;;4.68;;
57651;SDS011;43480;53.116;6.734;2023-04-24T08:23:32;9.02;;;5.78;;
57651;SDS011;43480;53.116;6.734;2023-04-24T08:25:57;14.38;;;6.88;;
57651;SDS011;43480;53.116;6.734;2023-04-24T08:28:23;11.57;;;8.43;;
57651;SDS011;43480;53.116;6.734;2023-04-24T08:30:49;14.15;;;8.80;;
57651;SDS011;43480;53.116;6.734;2023-04-24T08:33:19;16.08;;;10.50;;
57651;SDS011;43480;53.116;6.734;2023-04-24T08:35:46;17.92;;;10.77;;
57651;SDS011;43480;53.116;6.734;2023-04-24T08:38:11;19.50;;;11.13;;
57651;SDS011;43480;53.116;6.734;2023-04-24T08:40:37;19.40;;;11.68;;
57651;SDS011;43480;53.116;6.734;2023-04-24T08:43:04;24.45;;;13.55;;
57651;SDS011;43480;53.116;6.734;2023-04-24T08:45:30;26.70;;;15.40;;
57651;SDS011;43480;53.116;6.734;2023-04-24T08:47:57;23.80;;;14.90;;
57651;SDS011;43480;53.116;6.734;2023-04-24T08:50:24;25.73;;;15.57;;
57651;SDS011;43480;53.116;6.734;2023-04-24T08:52:50;25.17;;;15.85;;
57651;SDS011;43480;53.116;6.734;2023-04-24T08:55:18;24.40;;;16.00;;
57651;SDS011;43480;53.116;6.734;2023-04-24T08:57:48;31.02;;;15.88;;
57651;SDS011;43480;53.116;6.734;2023-04-24T09:00:19;22.98;;;14.52;;
57651;SDS011;43480;53.116;6.734;2023-04-24T09:02:45;20.85;;;14.27;;
57651;SDS011;43480;53.116;6.734;2023-04-24T09:05:13;24.55;;;15.18;;
57651;SDS011;43480;53.116;6.734;2023-04-24T09:07:41;24.35;;;15.82;;
57651;SDS011;43480;53.116;6.734;2023-04-24T09:10:14;28.95;;;15.05;;
57651;SDS011;43480;53.116;6.734;2023-04-24T09:12:41;22.48;;;14.10;;
57651;SDS011;43480;53.116;6.734;2023-04-24T09:15:07;20.42;;;13.90;;
57651;SDS011;43480;53.116;6.734;2023-04-24T09:17:34;21.55;;;15.63;;
57651;SDS011;43480;53.116;6.734;2023-04-24T09:20:00;26.10;;;14.27;;
57651;SDS011;43480;53.116;6.734;2023-04-24T09:22:28;19.27;;;13.68;;
57651;SDS011;43480;53.116;6.734;2023-04-24T09:25:02;17.55;;;13.82;;
57651;SDS011;43480;53.116;6.734;2023-04-24T09:27:34;19.52;;;13.68;;
57651;SDS011;43480;53.116;6.734;2023-04-24T09:30:00;21.17;;;15.25;;
57651;SDS011;43480;53.116;6.734;2023-04-24T09:32:27;25.40;;;16.83;;
57651;SDS011;43480;53.116;6.734;2023-04-24T09:35:11;21.80;;;16.02;;
57651;SDS011;43480;53.116;6.734;2023-04-24T09:37:39;23.73;;;16.42;;
57651;SDS011;43480;53.116;6.734;2023-04-24T09:40:19;23.70;;;17.27;;
57651;SDS011;43480;53.116;6.734;2023-04-24T09:42:52;23.60;;;16.67;;
57651;SDS011;43480;53.116;6.734;2023-04-24T09:45:19;20.25;;;15.98;;
57651;SDS011;43480;53.116;6.734;2023-04-24T09:47:45;19.80;;;14.82;;
57651;SDS011;43480;53.116;6.734;2023-04-24T09:50:17;18.73;;;13.43;;
57651;SDS011;43480;53.116;6.734;2023-04-24T09:52:43;21.15;;;13.45;;
57651;SDS011;43480;53.116;6.734;2023-04-24T09:55:18;20.52;;;13.55;;
57651;SDS011;43480;53.116;6.734;2023-04-24T09:57:55;19.83;;;13.88;;
57651;SDS011;43480;53.116;6.734;2023-04-24T10:00:25;19.27;;;12.63;;
57651;SDS011;43480;53.116;6.734;2023-04-24T10:08:01;24.33;;;11.98;;
57651;SDS011;43480;53.116;6.734;2023-04-24T10:10:28;19.33;;;12.40;;
57651;SDS011;43480;53.116;6.734;2023-04-24T10:12:54;18.10;;;12.27;;
57651;SDS011;43480;53.116;6.734;2023-04-24T10:15:20;22.88;;;11.95;;
57651;SDS011;43480;53.116;6.734;2023-04-24T10:17:50;18.40;;;11.90;;
57651;SDS011;43480;53.116;6.734;2023-04-24T10:20:20;16.13;;;9.48;;
57651;SDS011;43480;53.116;6.734;2023-04-24T10:22:48;18.63;;;9.85;;
57651;SDS011;43480;53.116;6.734;2023-04-24T10:25:19;15.23;;;9.10;;
57651;SDS011;43480;53.116;6.734;2023-04-24T10:27:46;12.00;;;7.53;;
57651;SDS011;43480;53.116;6.734;2023-04-24T10:30:12;16.52;;;8.02;;
57651;SDS011;43480;53.116;6.734;2023-04-24T10:32:39;15.93;;;8.13;;
57651;SDS011;43480;53.116;6.734;2023-04-24T10:35:08;9.90;;;5.63;;
57651;SDS011;43480;53.116;6.734;2023-04-24T10:37:37;9.63;;;4.63;;
57651;SDS011;43480;53.116;6.734;2023-04-24T10:40:05;11.90;;;4.40;;
57651;SDS011;43480;53.116;6.734;2023-04-24T10:42:33;10.63;;;5.00;;
57651;SDS011;43480;53.116;6.734;2023-04-24T10:44:59;9.02;;;4.90;;
57651;SDS011;43480;53.116;6.734;2023-04-24T10:47:27;11.00;;;4.93;;
57651;SDS011;43480;53.116;6.734;2023-04-24T10:49:52;8.80;;;4.10;;
57651;SDS011;43480;53.116;6.734;2023-04-24T10:52:18;10.23;;;4.38;;
57651;SDS011;43480;53.116;6.734;2023-04-24T10:54:46;8.88;;;3.67;;
57651;SDS011;43480;53.116;6.734;2023-04-24T10:59:51;11.43;;;4.30;;
57651;SDS011;43480;53.116;6.734;2023-04-24T11:02:38;11.05;;;4.60;;
57651;SDS011;43480;53.116;6.734;2023-04-24T11:05:05;11.32;;;4.53;;
57651;SDS011;43480;53.116;6.734;2023-04-24T11:10:47;7.85;;;4.35;;
57651;SDS011;43480;53.116;6.734;2023-04-24T11:13:27;10.52;;;3.78;;
57651;SDS011;43480;53.116;6.734;2023-04-24T11:16:26;11.10;;;4.95;;
57651;SDS011;43480;53.116;6.734;2023-04-24T11:19:02;12.63;;;3.97;;
57651;SDS011;43480;53.116;6.734;2023-04-24T11:26:51;8.38;;;3.33;;
57651;SDS011;43480;53.116;6.734;2023-04-24T11:29:19;10.63;;;3.55;;
57651;SDS011;43480;53.116;6.734;2023-04-24T11:31:46;6.97;;;3.25;;
57651;SDS011;43480;53.116;6.734;2023-04-24T11:34:16;8.55;;;3.00;;
57651;SDS011;43480;53.116;6.734;2023-04-24T11:36:43;7.07;;;3.25;;
57651;SDS011;43480;53.116;6.734;2023-04-24T11:39:10;9.15;;;3.17;;
57651;SDS011;43480;53.116;6.734;2023-04-24T11:41:36;8.27;;;3.22;;
57651;SDS011;43480;53.116;6.734;2023-04-24T11:44:02;10.07;;;3.33;;
57651;SDS011;43480;53.116;6.734;2023-04-24T11:46:30;9.10;;;2.70;;
57651;SDS011;43480;53.116;6.734;2023-04-24T11:48:57;6.95;;;3.10;;
57651;SDS011;43480;53.116;6.734;2023-04-24T11:51:24;6.35;;;2.50;;
57651;SDS011;43480;53.116;6.734;2023-04-24T11:53:51;8.63;;;2.85;;
57651;SDS011;43480;53.116;6.734;2023-04-24T11:56:18;7.32;;;2.50;;
57651;SDS011;43480;53.116;6.734;2023-04-24T11:58:44;10.27;;;3.45;;
57651;SDS011;43480;53.116;6.734;2023-04-24T12:01:10;7.63;;;3.30;;
57651;SDS011;43480;53.116;6.734;2023-04-24T12:03:36;8.85;;;3.08;;
57651;SDS011;43480;53.116;6.734;2023-04-24T12:06:09;9.95;;;3.22;;
57651;SDS011;43480;53.116;6.734;2023-04-24T12:08:35;6.00;;;2.35;;
57651;SDS011;43480;53.116;6.734;2023-04-24T12:11:02;7.78;;;2.65;;
57651;SDS011;43480;53.116;6.734;2023-04-24T12:13:29;9.13;;;3.15;;
57651;SDS011;43480;53.116;6.734;2023-04-24T12:15:59;5.15;;;2.38;;
57651;SDS011;43480;53.116;6.734;2023-04-24T12:18:26;10.60;;;2.22;;
57651;SDS011;43480;53.116;6.734;2023-04-24T12:20:52;6.00;;;1.92;;
57651;SDS011;43480;53.116;6.734;2023-04-24T12:23:33;4.72;;;1.95;;
57651;SDS011;43480;53.116;6.734;2023-04-24T12:26:05;8.10;;;2.05;;
57651;SDS011;43480;53.116;6.734;2023-04-24T12:28:35;6.38;;;2.10;;
57651;SDS011;43480;53.116;6.734;2023-04-24T12:31:01;9.45;;;2.03;;
57651;SDS011;43480;53.116;6.734;2023-04-24T12:33:27;7.05;;;2.50;;
57651;SDS011;43480;53.116;6.734;2023-04-24T12:35:57;7.22;;;1.65;;
57651;SDS011;43480;53.116;6.734;2023-04-24T12:38:24;5.43;;;2.10;;
57651;SDS011;43480;53.116;6.734;2023-04-24T12:41:04;6.15;;;1.73;;
57651;SDS011;43480;53.116;6.734;2023-04-24T12:43:33;4.57;;;1.75;;
57651;SDS011;43480;53.116;6.734;2023-04-24T12:46:00;11.88;;;2.53;;
57651;SDS011;43480;53.116;6.734;2023-04-24T12:48:26;4.32;;;2.03;;
57651;SDS011;43480;53.116;6.734;2023-04-24T12:50:52;8.63;;;2.58;;
57651;SDS011;43480;53.116;6.734;2023-04-24T12:53:18;5.70;;;2.20;;
57651;SDS011;43480;53.116;6.734;2023-04-24T12:55:44;4.70;;;2.17;;
57651;SDS011;43480;53.116;6.734;2023-04-24T12:58:10;8.32;;;2.00;;
57651;SDS011;43480;53.116;6.734;2023-04-24T13:00:36;8.80;;;2.00;;
57651;SDS011;43480;53.116;6.734;2023-04-24T13:03:03;5.15;;;1.92;;
57651;SDS011;43480;53.116;6.734;2023-04-24T13:05:29;2.85;;;1.50;;
57651;SDS011;43480;53.116;6.734;2023-04-24T13:07:55;5.13;;;1.77;;
57651;SDS011;43480;53.116;6.734;2023-04-24T13:10:20;4.57;;;1.48;;
57651;SDS011;43480;53.116;6.734;2023-04-24T13:12:46;3.58;;;1.30;;
57651;SDS011;43480;53.116;6.734;2023-04-24T13:15:11;4.80;;;1.40;;
57651;SDS011;43480;53.116;6.734;2023-04-24T13:17:37;4.43;;;1.35;;
57651;SDS011;43480;53.116;6.734;2023-04-24T13:20:03;7.50;;;1.92;;
57651;SDS011;43480;53.116;6.734;2023-04-24T13:22:29;4.07;;;1.65;;
57651;SDS011;43480;53.116;6.734;2023-04-24T13:24:55;4.07;;;1.33;;
57651;SDS011;43480;53.116;6.734;2023-04-24T13:27:21;7.65;;;1.75;;
57651;SDS011;43480;53.116;6.734;2023-04-24T13:29:46;8.93;;;2.20;;
57651;SDS011;43480;53.116;6.734;2023-04-24T13:32:12;5.95;;;2.10;;
57651;SDS011;43480;53.116;6.734;2023-04-24T13:34:38;6.43;;;2.28;;
57651;SDS011;43480;53.116;6.734;2023-04-24T13:37:04;11.80;;;4.15;;
57651;SDS011;43480;53.116;6.734;2023-04-24T13:39:30;7.03;;;2.55;;
57651;SDS011;43480;53.116;6.734;2023-04-24T13:41:56;14.63;;;7.70;;
57651;SDS011;43480;53.116;6.734;2023-04-24T13:44:23;15.80;;;8.43;;
57651;SDS011;43480;53.116;6.734;2023-04-24T13:46:49;9.55;;;4.13;;
57651;SDS011;43480;53.116;6.734;2023-04-24T13:49:17;11.52;;;6.10;;
57651;SDS011;43480;53.116;6.734;2023-04-24T13:51:43;6.97;;;1.73;;
57651;SDS011;43480;53.116;6.734;2023-04-24T13:54:09;5.82;;;1.70;;
57651;SDS011;43480;53.116;6.734;2023-04-24T13:56:35;6.43;;;1.55;;
57651;SDS011;43480;53.116;6.734;2023-04-24T13:59:00;5.13;;;1.70;;
57651;SDS011;43480;53.116;6.734;2023-04-24T14:01:27;3.50;;;1.10;;
57651;SDS011;43480;53.116;6.734;2023-04-24T14:03:53;3.28;;;1.50;;
57651;SDS011;43480;53.116;6.734;2023-04-24T14:06:19;5.07;;;1.70;;
57651;SDS011;43480;53.116;6.734;2023-04-24T14:08:46;5.65;;;1.20;;
57651;SDS011;43480;53.116;6.734;2023-04-24T14:11:12;4.35;;;1.50;;
57651;SDS011;43480;53.116;6.734;2023-04-24T14:13:38;4.70;;;1.48;;
57651;SDS011;43480;53.116;6.734;2023-04-24T14:16:05;4.28;;;1.30;;
57651;SDS011;43480;53.116;6.734;2023-04-24T14:18:31;5.07;;;1.60;;
57651;SDS011;43480;53.116;6.734;2023-04-24T14:20:57;3.83;;;1.15;;
57651;SDS011;43480;53.116;6.734;2023-04-24T14:23:22;4.10;;;1.20;;
57651;SDS011;43480;53.116;6.734;2023-04-24T14:25:48;7.13;;;1.90;;
57651;SDS011;43480;53.116;6.734;2023-04-24T14:28:17;4.50;;;1.38;;
57651;SDS011;43480;53.116;6.734;2023-04-24T14:30:43;8.82;;;2.15;;
57651;SDS011;43480;53.116;6.734;2023-04-24T14:33:09;6.13;;;2.15;;
57651;SDS011;43480;53.116;6.734;2023-04-24T14:35:35;6.28;;;2.15;;
57651;SDS011;43480;53.116;6.734;2023-04-24T14:38:01;8.20;;;2.85;;
57651;SDS011;43480;53.116;6.734;2023-04-24T14:40:26;8.18;;;2.35;;
57651;SDS011;43480;53.116;6.734;2023-04-24T14:42:52;6.95;;;2.47;;
57651;SDS011;43480;53.116;6.734;2023-04-24T14:45:18;8.65;;;2.10;;
57651;SDS011;43480;53.116;6.734;2023-04-24T14:47:44;6.72;;;2.33;;
57651;SDS011;43480;53.116;6.734;2023-04-24T14:50:10;11.15;;;2.60;;
57651;SDS011;43480;53.116;6.734;2023-04-24T14:52:37;9.00;;;3.05;;
57651;SDS011;43480;53.116;6.734;2023-04-24T14:55:03;10.00;;;2.70;;